x

Canaveral East - 120nm East Of Cape Canaveral (41010) Wave Buoy

8:50am - Wed 1st Apr 2015 All times are EDT. -4 hours from GMT.

  • Sig Wave height 5.2ft
  • Swell Direction
  • Peak Period 6s
  • Average Period 5s
  • Wind
    18mph, 20mph gusts
  • Sea Temp 75°f
  • Air Temp 74°f
  • Sea Pressure 1019mb
  • Canaveral East - 120nm East Of Cape Canaveral
  • Canaveral East - 120nm East Of Cape Canaveral

More Historic Weather Station data

Upgrade to MSW Pro to gain access to the past 30 days of data for over 8000 Wavebouys and Weather Stations around the globe.

Join Pro

Comparision Forecast

View Surf forecast
   
Wed 04/01 8:50am 5ft 6s 5s 18 20 mph 1019mb 75f 74f
8:20am  -   -   -  18 20 mph 1018.6mb 75f 73f
7:50am 4.5ft 6s 5s 18 22 mph 1018.6mb 75f 73f
7:20am  -   -   -  18 22 mph 1018mb 75f 74f
6:50am 5ft 6s 5s 20 22 mph 1017.4mb 75f 74f
6:20am  -   -   -  20 22 mph 1017mb 75f 74f
5:50am 5ft 5s 5s 20 25 mph 1016.5mb 75f 74f
5:20am  -   -   -  22 27 mph 1016.4mb 75f 74f
4:50am 4.5ft 5s 5s 25 29 mph 1016.5mb 75f 74f
4:20am  -   -   -  27 31 mph 1016.3mb 75f 74f
3:50am 4ft 5s 4s 25 29 mph 1016.4mb 75f 75f
3:20am  -   -   -  20 25 mph 1016.8mb 75f 75f
2:50am 3.5ft 4s 4s 20 25 mph 1017.2mb 75f 75f
2:20am  -   -   -  20 25 mph 1017.6mb 75f 75f
1:50am 2.5ft 4s 4s 20 22 mph 1017.8mb 75f 74f
1:20am  -   -   -  20 22 mph 1017.9mb 75f 74f
12:50am 2.5ft 9s 4s 16 18 mph 1017.9mb 75f 74f
12:20am  -   -   -  18 20 mph 1018mb 75f 74f
Tue 03/31 11:50pm 2.5ft 6s 5s 16 20 mph 1018.2mb 75f 74f
11:20pm  -   -   -  16 18 mph 1018.6mb 75f 74f
10:50pm 2.5ft 6s 5s 13 18 mph 1018.8mb 75f 73f
10:20pm  -   -   -  13 16 mph 1019mb 75f 73f
9:50pm 2.5ft 10s 5s 11 13 mph 1018.9mb 75f 73f
9:20pm  -   -   -  9 13 mph 1018.6mb 75f 73f
8:50pm 3ft 6s 5s 9 11 mph 1018.5mb 75f 73f
8:20pm  -   -   -  9 11 mph 1018.4mb 75f 73f
7:50pm 3ft 6s 5s 7 9 mph 1018.2mb 75f 74f
6:50pm 3.5ft 6s 5s 9 11 mph 1018mb 75f 74f
6:20pm  -   -   -  9 13 mph 1018mb 75f 74f
5:50pm 3.5ft 6s 5s 11 16 mph 1018mb 75f 74f
5:20pm  -   -   -  11 13 mph 1017.9mb 75f 74f
4:50pm 3.5ft 7s 5s 13 16 mph 1018.1mb 76f 74f
4:20pm  -   -   -  13 16 mph 1018.2mb 75f 74f
3:50pm 3.5ft 6s 5s 11 16 mph 1018.5mb 75f 74f
3:20pm  -   -   -  11 13 mph 1018.5mb 76f 73f
2:50pm 4ft 6s 5s 11 13 mph 1019mb 76f 73f
2:20pm  -   -   -  13 16 mph 1019.4mb 76f 73f
1:50pm 4.5ft 6s 5s 11 16 mph 1019.6mb 76f 73f
1:20pm  -   -   -  11 13 mph 1019.7mb 76f 73f
12:50pm 4ft 6s 5s 11 13 mph 1020.2mb 76f 73f
12:20pm  -   -   -  11 13 mph 1020.5mb 75f 73f
11:50am 3.5ft 6s 5s 11 13 mph 1020.6mb 75f 73f
11:20am  -   -   -  11 16 mph 1020.7mb 75f 73f
10:50am 4ft 6s 5s 11 16 mph 1020.8mb 75f 73f
10:20am  -   -   -  13 16 mph 1020.7mb 75f 73f
9:50am 3.5ft 6s 5s 13 18 mph 1020.6mb 75f 73f
9:20am  -   -   -  16 18 mph 1020.3mb 76f 72f
8:50am 4ft 5s 5s 16 18 mph 1020.2mb 76f 72f
8:20am  -   -   -  16 20 mph 1020mb 75f 72f
7:50am 4.5ft 5s 5s 16 20 mph 1019.8mb 75f 72f
7:20am  -   -   -  16 20 mph 1019.6mb 75f 72f
6:50am 4.5ft 5s 5s 20 22 mph 1019.3mb 75f 72f
6:20am  -   -   -  22 27 mph 1019mb 75f 72f
5:50am 4ft 4s 5s 25 29 mph 1018.6mb 76f 72f
5:20am  -   -   -  25 29 mph 1018.3mb 76f 72f
4:50am 3.5ft 9s 5s 25 29 mph 1018.4mb 76f 73f
4:20am  -   -   -  13 18 mph 1019.1mb 76f 73f
3:50am 3ft 9s 5s 16 20 mph 1019.5mb 76f 73f
3:20am  -   -   -  16 20 mph 1019.6mb 76f 73f
2:50am 3.5ft 4s 5s 16 18 mph 1019.9mb 76f 72f
2:20am  -   -   -  16 18 mph 1020mb 76f 72f
1:50am 3.5ft 9s 5s 16 20 mph 1020.2mb 76f 72f
1:20am  -   -   -  16 18 mph 1020.6mb 76f 72f
12:50am 3.5ft 9s 5s 13 18 mph 1020.9mb 76f 72f
12:20am  -   -   -  13 16 mph 1021.2mb 76f 71f
Mon 03/30 11:50pm 3.5ft 8s 5s 13 16 mph 1021.6mb 75f 71f
11:20pm  -   -   -  13 16 mph 1021.8mb 75f 71f
10:50pm 3.5ft 9s 5s 13 18 mph 1021.8mb 75f 71f
10:20pm  -   -   -  11 16 mph 1021.9mb 75f 70f
9:50pm 3.5ft 8s 5s 13 18 mph 1021.9mb 75f 70f
9:20pm  -   -   -  11 18 mph 1021.9mb 75f 70f
8:50pm 3.5ft 8s 6s 13 16 mph 1021.8mb 75f 70f
8:20pm  -   -   -  13 18 mph 1021.5mb 75f 70f
7:50pm 3ft 9s 6s 13 18 mph 1021.2mb 75f 70f
7:20pm  -   -   -  16 18 mph 1020.6mb 75f 70f
6:50pm 3ft 8s 6s 11 16 mph 1020.9mb 76f 70f
6:20pm  -   -   -  11 13 mph 1021.1mb 76f 70f
5:50pm 3.5ft 9s 6s 9 13 mph 1021.8mb 76f 70f
5:20pm  -   -   -  11 16 mph 1022.1mb 76f 70f
4:50pm 3ft 8s 7s 7 13 mph 1022.5mb 76f 70f
4:20pm  -   -   -  9 13 mph 1023mb 76f 69f
3:50pm 3.5ft 8s 6s 9 16 mph 1023.2mb 76f 69f
3:20pm  -   -   -  7 11 mph 1023.6mb 76f 69f
2:50pm 4ft 8s 7s 7 11 mph 1024mb 76f 68f
2:20pm  -   -   -  4 11 mph 1024.1mb 76f 68f
1:50pm 4ft 8s 7s 7 11 mph 1024.5mb 76f 68f
1:20pm  -   -   -  4 7 mph 1025mb 76f 68f
12:50pm 4ft 9s 7s 2 7 mph 1025.5mb 76f 68f
12:20pm  -   -   -  2 7 mph 1025.8mb 76f 67f
11:50am 4.5ft 9s 7s 4 9 mph 1026mb 76f 67f
11:20am  -   -   -  4 7 mph 1025.9mb 75f 67f
10:50am 4.5ft 8s 7s 4 9 mph 1025.9mb 75f 67f
10:20am  -   -   -  2 7 mph 1025.6mb 75f 66f
9:50am 4.5ft 9s 7s 4 9 mph 1025.2mb 75f 66f
9:20am  -   -   -  7 11 mph 1025mb 75f 66f
8:50am 4.5ft 8s 7s 4 9 mph 1024.9mb 75f 65f
8:20am  -   -   -  9 11 mph 1024.9mb 75f 65f
7:50am 4.5ft 8s 7s 7 9 mph 1024.9mb 75f 65f
7:20am  -   -   -  7 9 mph 1025mb 75f 64f
6:50am 5ft 8s 7s 7 11 mph 1024.7mb 75f 64f
6:20am  -   -   -  4 9 mph 1024.6mb 75f 64f
5:50am 5ft 8s 6s 7 9 mph 1024.5mb 75f 64f
5:20am  -   -   -  7 9 mph 1024.4mb 75f 63f
4:50am 5ft 8s 6s 4 7 mph 1024.4mb 75f 63f
4:20am  -   -   -  7 11 mph 1024.5mb 75f 63f
3:50am 5.5ft 9s 6s 7 9 mph 1024.7mb 75f 63f
3:20am  -   -   -  7 11 mph 1024.9mb 75f 63f
2:50am 5ft 8s 6s 4 9 mph 1025.2mb 75f 63f
2:20am  -   -   -  7 9 mph 1025.7mb 75f 63f
1:50am 5ft 7s 6s 7 13 mph 1026.2mb 75f 63f
1:20am  -   -   -  11 16 mph 1026.3mb 75f 64f
12:50am 4.5ft 9s 5s 13 22 mph 1026.4mb 75f 64f
12:20am  -   -   -  13 18 mph 1026.5mb 75f 64f
Sun 03/29 11:50pm 4.5ft 8s 5s 16 20 mph 1026.7mb 75f 64f
11:20pm  -   -   -  13 20 mph 1026.9mb 75f 64f
10:50pm 4.5ft 10s 5s 13 18 mph 1027mb 75f 64f
10:20pm  -   -   -  16 20 mph 1026.9mb 75f 64f
9:50pm 4ft 9s 6s 16 20 mph 1026.7mb 75f 64f
9:20pm  -   -   -  13 18 mph 1026.6mb 75f 64f
8:50pm 3.5ft 8s 6s 7 9 mph 1026.8mb 75f 64f
8:20pm  -   -   -  7 11 mph 1026.7mb 75f 64f
7:50pm 3.5ft 6s 6s 7 13 mph 1026.4mb 75f 64f
7:20pm  -   -   -  11 16 mph 1026.1mb 75f 64f
6:50pm 3.5ft 6s 5s 9 13 mph 1026mb 76f 64f
6:20pm  -   -   -  11 16 mph 1025.8mb 76f 64f
5:50pm 4ft 6s 5s 11 16 mph 1025.5mb 76f 64f
5:20pm  -   -   -  13 18 mph 1025.6mb 76f 64f
4:50pm 4.5ft 6s 5s 13 18 mph 1025.8mb 76f 64f
4:20pm  -   -   -  9 16 mph 1025.8mb 76f 64f
3:50pm 4.5ft 6s 5s 13 18 mph 1025.7mb 76f 64f
3:20pm  -   -   -  13 20 mph 1026mb 76f 64f
2:50pm 4.5ft 6s 5s 16 25 mph 1026mb 76f 64f
2:20pm  -   -   -  20 22 mph 1026.2mb 76f 64f
1:50pm 4.5ft 6s 5s 16 22 mph 1026.5mb 76f 64f
1:20pm  -   -   -  16 22 mph 1026.5mb 76f 64f
12:50pm 4.5ft 6s 5s 13 18 mph 1026.7mb 76f 64f
12:20pm  -   -   -  16 22 mph 1026.8mb 76f 64f
11:50am 4.5ft 7s 5s 16 22 mph 1026.8mb 76f 64f
11:20am  -   -   -  16 20 mph 1026.7mb 76f 64f
10:50am 4.5ft 7s 5s 16 22 mph 1026.5mb 76f 64f
10:20am  -   -   -  18 22 mph 1026.1mb 76f 65f
9:50am 4.5ft 7s 5s 16 22 mph 1025.8mb 76f 64f
9:20am  -   -   -  18 25 mph 1025.2mb 76f 64f
8:50am 4.5ft 6s 5s 18 22 mph 1024.8mb 76f 64f
8:20am  -   -   -  18 22 mph 1024.5mb 76f 65f
7:50am 4.5ft 6s 5s 16 22 mph 1024.1mb 76f 65f
7:20am  -   -   -  18 25 mph 1023.7mb 76f 65f
6:50am 4.5ft 7s 5s 16 22 mph 1023.1mb 76f 65f
6:20am  -   -   -  16 22 mph 1022.5mb 76f 65f
5:50am 4.5ft 9s 5s 18 22 mph 1022mb 76f 65f
5:20am  -   -   -  16 25 mph 1021.7mb 76f 66f
4:50am 5ft 6s 5s 18 22 mph 1021.4mb 76f 66f
4:20am  -   -   -  13 18 mph 1021.6mb 76f 66f
3:50am 5ft 7s 5s 13 18 mph 1021.5mb 76f 66f
3:20am  -   -   -  16 22 mph 1021.5mb 76f 66f
2:50am 5ft 7s 5s 13 18 mph 1021.8mb 76f 65f
2:20am  -   -   -  16 20 mph 1022.1mb 76f 66f
1:50am 5ft 7s 5s 11 18 mph 1022.3mb 76f 65f
1:20am  -   -   -  16 22 mph 1022.4mb 76f 66f
12:50am 5.5ft 7s 6s 16 20 mph 1022.7mb 76f 65f
12:20am  -   -   -  16 20 mph 1022.8mb 76f 65f
Sat 03/28 11:50pm 5.5ft 8s 5s 16 20 mph 1022.6mb 76f 65f
11:20pm  -   -   -  13 20 mph 1022.5mb 76f 65f
10:50pm 6ft 7s 6s 18 22 mph 1022.4mb 76f 65f
10:20pm  -   -   -  16 20 mph 1022.1mb 76f 65f
9:50pm 7ft 8s 6s 16 22 mph 1021.8mb 76f 64f
9:20pm  -   -   -  18 22 mph 1021.5mb 76f 64f
8:50pm 7ft 8s 6s 18 22 mph 1021.2mb 76f 64f
8:20pm  -   -   -  16 22 mph 1020.9mb 76f 63f
7:50pm 7.5ft 8s 6s 20 25 mph 1020.4mb 76f 63f
7:20pm  -   -   -  20 25 mph 1020.1mb 76f 63f
6:50pm 8ft 8s 6s 20 27 mph 1019.8mb 76f 63f
6:20pm  -   -   -  20 25 mph 1019.5mb 76f 64f
5:50pm 6ft 8s 6s 18 25 mph 1019mb 76f 64f
5:20pm  -   -   -  18 25 mph 1018.7mb 76f 64f
4:50pm 7ft 8s 6s 18 22 mph 1018.7mb 76f 63f
4:20pm  -   -   -  18 25 mph 1018.8mb 76f 63f
3:50pm 7ft 8s 6s 18 22 mph 1018.8mb 76f 64f
3:20pm  -   -   -  18 25 mph 1018.6mb 75f 63f
2:50pm 7ft 8s 6s 20 25 mph 1018.7mb 75f 63f
2:20pm  -   -   -  18 27 mph 1018.8mb 75f 63f